Time;durP1;ratioP1;P1;durP2;ratioP2;P2;SDS_P1;SDS_P2;PMS_P1;PMS_P2;Temp;Humidity;BMP_temperature;BMP_pressure;BME280_temperature;BME280_humidity;BME280_pressure;Samples;Min_cycle;Max_cycle;Signal;HPM_P1;HPM_P2
2023/01/28 00:01:21;;;;;;;4.40;3.05;;;;;;;;;;5115462;28;20193;-60
2023/01/28 00:03:50;;;;;;;3.20;2.90;;;;;;;;;;5115586;28;20300;-60
2023/01/28 00:06:17;;;;;;;4.45;3.58;;;;;;;;;;5115542;28;20186;-60
2023/01/28 00:08:44;;;;;;;3.42;2.78;;;;;;;;;;5115479;28;20197;-60
2023/01/28 00:11:12;;;;;;;5.40;3.47;;;;;;;;;;5115372;28;20225;-60
2023/01/28 00:13:41;;;;;;;3.88;3.38;;;;;;;;;;5115254;28;20299;-60
2023/01/28 00:16:08;;;;;;;5.22;3.00;;;;;;;;;;5115373;28;20551;-60
2023/01/28 00:18:36;;;;;;;5.93;3.50;;;;;;;;;;5115312;28;20216;-60
2023/01/28 00:21:04;;;;;;;6.53;3.00;;;;;;;;;;5115254;28;20189;-60
2023/01/28 00:23:32;;;;;;;5.78;3.53;;;;;;;;;;5115336;28;20279;-60
2023/01/28 00:25:59;;;;;;;3.95;3.03;;;;;;;;;;5115209;28;20194;-60
2023/01/28 00:28:26;;;;;;;3.97;3.67;;;;;;;;;;5115401;28;20544;-60
2023/01/28 00:30:54;;;;;;;4.53;2.92;;;;;;;;;;5115006;28;20192;-60
2023/01/28 00:33:21;;;;;;;3.83;3.20;;;;;;;;;;5115201;28;20229;-60
2023/01/28 00:35:48;;;;;;;7.43;3.42;;;;;;;;;;5115057;28;20240;-60
2023/01/28 00:38:15;;;;;;;5.72;3.22;;;;;;;;;;5114783;28;20218;-59
2023/01/28 00:40:42;;;;;;;5.65;3.78;;;;;;;;;;5114728;28;20223;-60
2023/01/28 00:43:09;;;;;;;3.30;3.00;;;;;;;;;;5114883;28;20280;-62
2023/01/28 00:45:36;;;;;;;9.52;3.50;;;;;;;;;;5114734;28;20240;-60
2023/01/28 00:48:05;;;;;;;5.25;3.55;;;;;;;;;;5114756;28;20193;-60
2023/01/28 00:50:32;;;;;;;4.22;3.00;;;;;;;;;;5114792;28;20189;-60
2023/01/28 00:52:59;;;;;;;3.92;3.47;;;;;;;;;;5114543;28;20188;-60
2023/01/28 00:55:27;;;;;;;3.38;2.60;;;;;;;;;;5114721;28;20242;-60
2023/01/28 00:57:54;;;;;;;5.15;2.90;;;;;;;;;;5114618;28;20227;-60
2023/01/28 01:00:24;;;;;;;3.17;2.85;;;;;;;;;;5114388;28;20275;-60
2023/01/28 01:02:51;;;;;;;4.00;2.75;;;;;;;;;;5114397;28;20215;-60
2023/01/28 01:05:19;;;;;;;3.28;3.00;;;;;;;;;;5114293;28;20280;-60
2023/01/28 01:07:46;;;;;;;5.35;4.18;;;;;;;;;;5113480;28;20292;-60
2023/01/28 01:10:14;;;;;;;8.88;3.55;;;;;;;;;;5114337;28;20186;-60
2023/01/28 01:12:41;;;;;;;3.75;3.40;;;;;;;;;;5114144;28;20550;-60
2023/01/28 01:15:11;;;;;;;7.07;3.75;;;;;;;;;;5114142;28;20303;-60
2023/01/28 01:17:38;;;;;;;3.55;2.83;;;;;;;;;;5114023;28;20616;-60
2023/01/28 01:20:06;;;;;;;3.08;2.50;;;;;;;;;;5113953;28;20284;-60
2023/01/28 01:22:34;;;;;;;3.47;2.90;;;;;;;;;;5114146;28;20185;-60
2023/01/28 01:25:02;;;;;;;3.30;2.65;;;;;;;;;;5113944;28;20184;-60
2023/01/28 01:27:29;;;;;;;4.85;3.15;;;;;;;;;;5113914;28;20280;-60
2023/01/28 01:29:57;;;;;;;3.58;3.10;;;;;;;;;;5113716;28;20216;-60
2023/01/28 01:32:24;;;;;;;3.10;2.63;;;;;;;;;;5113682;28;20188;-60
2023/01/28 01:34:51;;;;;;;3.03;2.75;;;;;;;;;;5113479;28;20292;-60
2023/01/28 01:37:18;;;;;;;4.32;3.33;;;;;;;;;;5113749;28;20298;-60
2023/01/28 01:39:46;;;;;;;4.03;3.15;;;;;;;;;;5113714;28;20715;-60
2023/01/28 01:42:14;;;;;;;3.83;3.35;;;;;;;;;;5113604;28;20285;-60
2023/01/28 01:44:57;;;;;;;4.35;3.47;;;;;;;;;;5113371;28;20315;-60
2023/01/28 01:47:26;;;;;;;3.30;2.90;;;;;;;;;;5113440;28;20279;-60
2023/01/28 01:49:53;;;;;;;3.15;2.40;;;;;;;;;;5113667;28;20196;-60
2023/01/28 01:52:21;;;;;;;5.13;3.53;;;;;;;;;;5113490;28;20195;-60
2023/01/28 01:54:52;;;;;;;4.63;2.78;;;;;;;;;;5113363;28;20195;-60
2023/01/28 01:57:23;;;;;;;4.72;2.75;;;;;;;;;;5113257;28;20257;-60
2023/01/28 01:59:50;;;;;;;2.80;2.60;;;;;;;;;;5113144;28;20592;-60
2023/01/28 02:02:17;;;;;;;7.03;3.25;;;;;;;;;;5113687;28;20188;-60
2023/01/28 02:04:44;;;;;;;3.65;3.35;;;;;;;;;;5113553;28;20280;-60
2023/01/28 02:07:13;;;;;;;3.60;3.05;;;;;;;;;;5113400;28;20208;-60
2023/01/28 02:09:40;;;;;;;4.07;3.15;;;;;;;;;;5113109;28;20188;-60
2023/01/28 02:12:10;;;;;;;3.03;2.40;;;;;;;;;;5112955;28;20193;-60
2023/01/28 02:14:39;;;;;;;3.88;2.90;;;;;;;;;;5113059;28;20543;-60
2023/01/28 02:17:06;;;;;;;4.97;3.20;;;;;;;;;;5112978;28;20191;-60
2023/01/28 02:19:37;;;;;;;7.50;3.95;;;;;;;;;;5112124;28;20280;-61
2023/01/28 02:22:10;;;;;;;6.05;2.75;;;;;;;;;;5112915;28;20189;-61
2023/01/28 02:24:55;;;;;;;2.53;2.20;;;;;;;;;;5112894;28;20288;-60
2023/01/28 02:27:28;;;;;;;3.03;2.58;;;;;;;;;;5071988;28;20189;-60
2023/01/28 02:30:00;;;;;;;3.33;2.70;;;;;;;;;;5112782;28;20660;-60
2023/01/28 02:32:30;;;;;;;3.92;2.95;;;;;;;;;;5112705;28;20249;-60
2023/01/28 02:35:00;;;;;;;7.55;3.50;;;;;;;;;;5112760;28;20198;-60
2023/01/28 02:37:30;;;;;;;4.60;2.60;;;;;;;;;;5112758;28;20208;-60
2023/01/28 02:39:58;;;;;;;3.17;2.88;;;;;;;;;;5112947;28;20279;-60
2023/01/28 02:42:27;;;;;;;5.03;3.15;;;;;;;;;;5112718;28;20614;-60
2023/01/28 02:44:56;;;;;;;2.53;2.33;;;;;;;;;;5112784;28;20304;-60
2023/01/28 02:50:09;;;;;;;2.63;2.33;;;;;;;;;;5112666;28;20552;-60
2023/01/28 02:55:32;;;;;;;4.65;2.90;;;;;;;;;;5112617;28;20199;-60
2023/01/28 02:58:02;;;;;;;5.70;3.33;;;;;;;;;;5112366;28;20224;-61
2023/01/28 03:00:35;;;;;;;3.80;2.33;;;;;;;;;;5112771;28;20566;-61
2023/01/28 03:03:06;;;;;;;2.97;2.45;;;;;;;;;;5112504;28;20225;-61
2023/01/28 03:05:36;;;;;;;6.35;3.45;;;;;;;;;;5112447;28;20195;-60
2023/01/28 03:09:21;;;;;;;3.95;2.83;;;;;;;;;;5112179;28;20666;-60
2023/01/28 03:38:42;;;;;;;3.50;2.90;;;;;;;;;;5115847;28;20217;-61
2023/01/28 03:41:11;;;;;;;3.90;2.88;;;;;;;;;;5115904;28;20187;-60
2023/01/28 03:43:38;;;;;;;2.50;2.30;;;;;;;;;;5115969;28;20621;-60
2023/01/28 03:46:05;;;;;;;5.70;2.58;;;;;;;;;;5115621;28;20221;-60
2023/01/28 03:48:34;;;;;;;3.78;2.10;;;;;;;;;;5116306;28;20189;-60
2023/01/28 03:51:01;;;;;;;2.78;2.15;;;;;;;;;;5115770;28;20193;-60
2023/01/28 03:53:28;;;;;;;4.53;2.45;;;;;;;;;;5115602;28;20275;-60
2023/01/28 03:55:55;;;;;;;3.47;2.70;;;;;;;;;;5115796;28;20193;-60
2023/01/28 03:58:25;;;;;;;2.97;2.47;;;;;;;;;;5115820;28;20213;-60
2023/01/28 04:00:52;;;;;;;4.40;2.95;;;;;;;;;;5115902;28;20189;-60
2023/01/28 04:03:20;;;;;;;4.07;2.80;;;;;;;;;;5115947;28;20191;-60
2023/01/28 04:05:58;;;;;;;5.53;2.80;;;;;;;;;;5115991;28;20276;-60
2023/01/28 04:08:25;;;;;;;5.85;3.05;;;;;;;;;;5115908;28;20198;-60
2023/01/28 04:10:52;;;;;;;4.30;3.90;;;;;;;;;;5115713;28;20648;-60
2023/01/28 04:13:19;;;;;;;3.58;2.15;;;;;;;;;;5115812;28;20192;-60
2023/01/28 04:15:46;;;;;;;3.35;2.53;;;;;;;;;;5116040;28;20196;-60
2023/01/28 04:18:13;;;;;;;2.80;2.60;;;;;;;;;;5115570;28;20225;-60
2023/01/28 04:20:40;;;;;;;3.15;2.45;;;;;;;;;;5115566;28;20193;-60
2023/01/28 04:23:08;;;;;;;3.25;2.35;;;;;;;;;;5115522;28;20195;-60
2023/01/28 04:25:35;;;;;;;3.95;2.90;;;;;;;;;;5115356;28;20189;-60
2023/01/28 04:28:02;;;;;;;3.03;2.03;;;;;;;;;;5115567;28;20189;-61
2023/01/28 04:30:30;;;;;;;2.50;2.30;;;;;;;;;;5115680;28;20188;-60
2023/01/28 04:32:57;;;;;;;7.03;3.17;;;;;;;;;;5115202;28;20190;-60
2023/01/28 04:35:24;;;;;;;5.53;2.40;;;;;;;;;;5115271;28;20283;-60
2023/01/28 04:37:51;;;;;;;5.85;2.72;;;;;;;;;;5115117;28;20189;-61
2023/01/28 04:40:19;;;;;;;3.25;1.90;;;;;;;;;;5115083;28;20185;-61
2023/01/28 04:42:53;;;;;;;4.63;2.20;;;;;;;;;;5114234;28;20198;-61
2023/01/28 04:45:20;;;;;;;4.75;2.58;;;;;;;;;;5115087;28;20233;-61
2023/01/28 04:47:47;;;;;;;2.00;1.80;;;;;;;;;;5115077;28;20568;-61
2023/01/28 04:50:14;;;;;;;5.10;3.17;;;;;;;;;;5114922;28;20189;-61
2023/01/28 04:52:41;;;;;;;3.15;2.10;;;;;;;;;;5114715;28;20266;-60
2023/01/28 04:55:08;;;;;;;6.35;2.00;;;;;;;;;;5115052;28;20195;-61
2023/01/28 04:57:36;;;;;;;4.68;2.40;;;;;;;;;;5115082;28;20192;-61
2023/01/28 05:00:04;;;;;;;2.40;1.98;;;;;;;;;;5114868;28;20217;-60
2023/01/28 05:02:31;;;;;;;2.35;2.10;;;;;;;;;;5114548;28;20196;-60
2023/01/28 05:05:00;;;;;;;3.42;2.10;;;;;;;;;;5114951;28;20185;-60
2023/01/28 05:07:27;;;;;;;2.20;1.60;;;;;;;;;;5114487;28;20245;-61
2023/01/28 05:09:54;;;;;;;3.25;2.70;;;;;;;;;;5114714;28;20260;-60
2023/01/28 05:12:21;;;;;;;3.08;2.78;;;;;;;;;;5114608;28;20651;-61
2023/01/28 05:14:49;;;;;;;2.28;2.03;;;;;;;;;;5114620;28;20200;-60
2023/01/28 05:17:16;;;;;;;3.45;2.40;;;;;;;;;;5114482;28;20189;-60
2023/01/28 05:19:45;;;;;;;4.57;2.60;;;;;;;;;;5114299;28;20213;-60
2023/01/28 05:22:12;;;;;;;3.35;2.22;;;;;;;;;;5114452;28;20333;-61
2023/01/28 05:24:40;;;;;;;4.10;2.05;;;;;;;;;;5114505;28;20527;-60
2023/01/28 05:27:07;;;;;;;2.40;2.20;;;;;;;;;;5114300;28;20189;-60
2023/01/28 05:29:34;;;;;;;1.83;1.70;;;;;;;;;;5114301;28;20242;-60
2023/01/28 05:32:02;;;;;;;1.90;1.75;;;;;;;;;;5114269;28;20697;-61
2023/01/28 05:34:29;;;;;;;3.40;2.40;;;;;;;;;;5114045;28;20185;-61
2023/01/28 05:36:56;;;;;;;3.70;2.10;;;;;;;;;;5114234;28;20193;-61
2023/01/28 05:39:23;;;;;;;2.35;1.95;;;;;;;;;;5114095;28;20585;-60
2023/01/28 05:41:50;;;;;;;2.42;2.05;;;;;;;;;;5114007;28;20185;-61
2023/01/28 05:44:17;;;;;;;3.83;2.15;;;;;;;;;;5113819;28;20568;-61
2023/01/28 05:46:44;;;;;;;2.50;2.30;;;;;;;;;;5113938;28;20201;-61
2023/01/28 05:49:13;;;;;;;2.92;2.63;;;;;;;;;;5113824;28;20196;-60
2023/01/28 05:51:39;;;;;;;3.42;2.65;;;;;;;;;;5113962;28;20557;-60
2023/01/28 05:54:07;;;;;;;2.78;2.53;;;;;;;;;;5113692;28;20192;-61
2023/01/28 05:56:35;;;;;;;4.60;3.50;;;;;;;;;;5113685;28;20298;-61
2023/01/28 05:59:02;;;;;;;4.50;3.85;;;;;;;;;;5113596;28;20303;-60
2023/01/28 06:01:29;;;;;;;4.88;4.45;;;;;;;;;;5113471;28;20215;-61
2023/01/28 06:03:56;;;;;;;6.82;3.72;;;;;;;;;;5113683;28;20556;-61
2023/01/28 06:06:24;;;;;;;5.85;3.45;;;;;;;;;;5113661;28;20188;-61
2023/01/28 06:08:51;;;;;;;5.40;4.78;;;;;;;;;;5113628;28;20200;-60
2023/01/28 06:11:18;;;;;;;5.70;4.90;;;;;;;;;;5113942;28;20296;-61
2023/01/28 06:13:45;;;;;;;7.43;4.78;;;;;;;;;;5113326;28;20194;-60
2023/01/28 06:16:12;;;;;;;7.15;4.28;;;;;;;;;;5113237;28;20196;-61
2023/01/28 06:18:40;;;;;;;5.55;3.70;;;;;;;;;;5113683;28;20223;-61
2023/01/28 06:21:07;;;;;;;5.50;3.30;;;;;;;;;;5113454;28;20197;-61
2023/01/28 06:23:35;;;;;;;3.70;3.40;;;;;;;;;;5113331;28;20186;-61
2023/01/28 06:26:02;;;;;;;3.97;3.55;;;;;;;;;;5113383;28;20231;-61
2023/01/28 06:28:29;;;;;;;3.40;3.10;;;;;;;;;;5113261;28;20279;-60
2023/01/28 06:30:56;;;;;;;3.22;2.90;;;;;;;;;;5113140;28;20201;-60
2023/01/28 06:33:23;;;;;;;2.97;2.65;;;;;;;;;;5113401;28;20189;-61
2023/01/28 06:35:50;;;;;;;4.80;3.00;;;;;;;;;;5113261;28;20533;-60
2023/01/28 06:38:17;;;;;;;3.58;3.08;;;;;;;;;;5113432;28;20737;-60
2023/01/28 06:40:45;;;;;;;2.75;2.55;;;;;;;;;;5113182;28;20186;-61
2023/01/28 06:43:12;;;;;;;4.05;2.40;;;;;;;;;;5113031;28;20190;-60
2023/01/28 06:45:39;;;;;;;4.30;2.88;;;;;;;;;;5113492;28;20304;-61
2023/01/28 06:48:06;;;;;;;3.05;2.75;;;;;;;;;;5113166;28;20189;-60
2023/01/28 06:50:33;;;;;;;3.50;2.60;;;;;;;;;;5113106;28;20199;-61
2023/01/28 06:53:00;;;;;;;3.13;2.75;;;;;;;;;;5113116;28;20196;-61
2023/01/28 06:55:27;;;;;;;3.17;2.67;;;;;;;;;;5113043;28;20194;-60
2023/01/28 06:57:55;;;;;;;2.88;2.55;;;;;;;;;;5113071;28;20194;-61
2023/01/28 07:00:22;;;;;;;3.58;2.63;;;;;;;;;;5112945;28;20217;-61
2023/01/28 07:02:49;;;;;;;4.70;2.50;;;;;;;;;;5112977;28;20194;-60
2023/01/28 07:05:16;;;;;;;3.30;2.65;;;;;;;;;;5114012;28;20669;-61
2023/01/28 07:07:44;;;;;;;3.10;2.80;;;;;;;;;;5116948;28;20193;-61
2023/01/28 07:10:11;;;;;;;3.40;2.83;;;;;;;;;;5116715;28;20276;-61
2023/01/28 07:12:38;;;;;;;4.00;2.88;;;;;;;;;;5117027;28;20200;-60
2023/01/28 07:15:09;;;;;;;4.32;3.78;;;;;;;;;;5117087;28;20186;-60
2023/01/28 07:17:36;;;;;;;3.83;3.42;;;;;;;;;;5116864;28;20190;-60
2023/01/28 07:20:04;;;;;;;4.75;3.65;;;;;;;;;;5116659;28;20244;-60
2023/01/28 07:22:31;;;;;;;3.97;3.58;;;;;;;;;;5116596;28;20196;-60
2023/01/28 07:25:00;;;;;;;3.65;3.40;;;;;;;;;;5116505;28;20189;-60
2023/01/28 07:27:26;;;;;;;4.05;3.65;;;;;;;;;;5116761;28;20191;-60
2023/01/28 07:29:53;;;;;;;4.15;3.78;;;;;;;;;;5116551;28;20189;-60
2023/01/28 07:32:22;;;;;;;4.15;3.85;;;;;;;;;;5116333;28;20666;-60
2023/01/28 07:34:49;;;;;;;4.90;4.40;;;;;;;;;;5116390;28;20189;-60
2023/01/28 07:37:16;;;;;;;4.60;4.20;;;;;;;;;;5116342;28;20236;-60
2023/01/28 07:39:43;;;;;;;9.43;7.30;;;;;;;;;;5116100;28;20213;-60
2023/01/28 07:42:10;;;;;;;8.38;7.57;;;;;;;;;;5116344;28;20195;-60
2023/01/28 07:44:37;;;;;;;9.23;7.22;;;;;;;;;;5116246;28;20228;-60
2023/01/28 07:47:04;;;;;;;6.43;5.70;;;;;;;;;;5116236;28;20198;-60
2023/01/28 07:49:33;;;;;;;4.97;4.57;;;;;;;;;;5116161;28;20225;-60
2023/01/28 07:52:00;;;;;;;5.00;4.43;;;;;;;;;;5115979;28;20397;-60
2023/01/28 07:54:27;;;;;;;5.75;5.13;;;;;;;;;;5116120;28;20194;-60
2023/01/28 07:56:54;;;;;;;6.65;6.05;;;;;;;;;;5115753;28;20195;-60
2023/01/28 07:59:21;;;;;;;5.50;5.00;;;;;;;;;;5115592;28;20332;-60
2023/01/28 08:01:48;;;;;;;5.80;4.65;;;;;;;;;;5115949;28;20199;-60
2023/01/28 08:04:15;;;;;;;8.05;6.30;;;;;;;;;;5115822;28;20200;-60
2023/01/28 08:06:43;;;;;;;6.10;5.50;;;;;;;;;;5115767;28;20195;-60
2023/01/28 08:09:10;;;;;;;7.45;6.60;;;;;;;;;;5115738;28;20704;-59
2023/01/28 08:11:38;;;;;;;7.78;6.35;;;;;;;;;;5115811;28;20192;-59
2023/01/28 08:14:05;;;;;;;11.07;6.47;;;;;;;;;;5115641;28;20521;-59
2023/01/28 08:16:32;;;;;;;9.63;7.38;;;;;;;;;;5115493;28;20248;-59
2023/01/28 08:18:59;;;;;;;8.65;7.45;;;;;;;;;;5115415;28;20503;-59
2023/01/28 08:21:26;;;;;;;9.05;7.10;;;;;;;;;;5115631;28;20204;-60
2023/01/28 08:23:55;;;;;;;8.85;6.30;;;;;;;;;;5115518;28;20189;-60
2023/01/28 08:26:22;;;;;;;9.20;5.80;;;;;;;;;;5115441;28;20561;-60
2023/01/28 08:28:49;;;;;;;9.40;6.30;;;;;;;;;;5115664;28;20285;-59
2023/01/28 08:31:16;;;;;;;8.70;7.10;;;;;;;;;;5115402;28;20189;-60
2023/01/28 08:33:43;;;;;;;9.07;7.75;;;;;;;;;;5115099;28;20189;-60
2023/01/28 08:36:10;;;;;;;7.13;6.32;;;;;;;;;;5115100;28;20658;-60
2023/01/28 08:38:37;;;;;;;8.35;7.55;;;;;;;;;;5115399;28;20233;-60
2023/01/28 08:41:05;;;;;;;10.38;8.30;;;;;;;;;;5115128;28;20228;-59
2023/01/28 08:43:32;;;;;;;8.98;7.50;;;;;;;;;;5115107;28;20236;-60
2023/01/28 08:45:59;;;;;;;8.55;7.63;;;;;;;;;;5114805;28;20226;-60
2023/01/28 08:48:26;;;;;;;12.68;10.73;;;;;;;;;;5115232;28;20221;-60
2023/01/28 08:50:53;;;;;;;18.85;12.45;;;;;;;;;;5115112;28;20194;-60
2023/01/28 08:53:20;;;;;;;15.35;11.70;;;;;;;;;;5114848;28;20189;-60
2023/01/28 08:55:48;;;;;;;21.55;12.05;;;;;;;;;;5114975;28;20645;-60
2023/01/28 08:58:16;;;;;;;16.13;11.63;;;;;;;;;;5114638;28;20187;-60
2023/01/28 09:00:44;;;;;;;16.75;11.25;;;;;;;;;;5114808;28;20233;-60
2023/01/28 09:03:11;;;;;;;13.63;10.88;;;;;;;;;;5114821;28;20185;-60
2023/01/28 09:05:38;;;;;;;15.90;10.02;;;;;;;;;;5114847;28;20185;-59
2023/01/28 09:08:06;;;;;;;14.25;10.55;;;;;;;;;;5114617;28;20196;-60
2023/01/28 09:10:33;;;;;;;12.13;9.88;;;;;;;;;;5114519;28;20561;-59
2023/01/28 09:13:00;;;;;;;12.20;9.40;;;;;;;;;;5114445;28;20204;-60
2023/01/28 09:15:28;;;;;;;10.20;8.40;;;;;;;;;;5114335;28;20251;-60
2023/01/28 09:17:58;;;;;;;10.38;8.25;;;;;;;;;;5114529;28;20190;-60
2023/01/28 09:20:25;;;;;;;12.48;9.20;;;;;;;;;;5114357;28;20222;-60
2023/01/28 09:22:52;;;;;;;11.40;8.43;;;;;;;;;;5114219;28;20649;-60
2023/01/28 09:25:19;;;;;;;13.98;9.45;;;;;;;;;;5114145;28;20663;-59
2023/01/28 09:27:46;;;;;;;13.90;10.68;;;;;;;;;;5113533;28;20636;-60
2023/01/28 09:30:13;;;;;;;12.73;9.50;;;;;;;;;;5114180;28;20281;-60
2023/01/28 09:32:41;;;;;;;13.98;10.07;;;;;;;;;;5114226;28;20712;-60
2023/01/28 09:35:09;;;;;;;10.80;8.90;;;;;;;;;;5114193;28;20735;-60
2023/01/28 09:37:36;;;;;;;9.18;7.15;;;;;;;;;;5113975;28;20281;-59
2023/01/28 09:40:03;;;;;;;8.45;6.45;;;;;;;;;;5113873;28;20214;-60
2023/01/28 09:42:37;;;;;;;8.90;6.07;;;;;;;;;;5113931;28;20701;-60
2023/01/28 09:45:10;;;;;;;10.25;6.93;;;;;;;;;;5113934;28;20546;-60
2023/01/28 09:47:39;;;;;;;8.45;7.57;;;;;;;;;;5114007;28;20186;-60
2023/01/28 09:50:10;;;;;;;9.88;8.35;;;;;;;;;;5113834;28;20289;-59
2023/01/28 09:52:40;;;;;;;9.02;8.10;;;;;;;;;;5113663;28;20282;-60
2023/01/28 09:55:10;;;;;;;8.20;6.72;;;;;;;;;;5113726;28;20281;-59
2023/01/28 09:57:38;;;;;;;10.48;8.13;;;;;;;;;;5113815;28;20194;-60
2023/01/28 10:00:11;;;;;;;8.75;6.20;;;;;;;;;;5113636;28;20216;-60
2023/01/28 10:02:41;;;;;;;8.50;6.65;;;;;;;;;;5113613;28;20282;-59
2023/01/28 10:05:16;;;;;;;9.60;6.88;;;;;;;;;;5113496;28;20201;-59
2023/01/28 10:07:46;;;;;;;9.02;6.15;;;;;;;;;;5113707;28;20222;-60
2023/01/28 10:10:15;;;;;;;7.55;5.60;;;;;;;;;;5113634;28;20204;-60
2023/01/28 10:13:00;;;;;;;9.43;7.05;;;;;;;;;;5113431;28;20191;-60
2023/01/28 10:15:44;;;;;;;7.63;6.53;;;;;;;;;;5113255;28;20217;-59
2023/01/28 10:18:12;;;;;;;8.38;6.45;;;;;;;;;;5113308;28;20671;-60
2023/01/28 10:20:42;;;;;;;7.45;6.20;;;;;;;;;;5113711;28;20227;-60
2023/01/28 10:23:14;;;;;;;10.35;8.05;;;;;;;;;;5113475;28;20190;-60
2023/01/28 10:25:43;;;;;;;12.75;8.55;;;;;;;;;;5113510;28;20189;-60
2023/01/28 10:28:15;;;;;;;13.00;10.05;;;;;;;;;;5113121;28;20200;-60
2023/01/28 10:30:43;;;;;;;13.45;10.00;;;;;;;;;;5113441;28;20194;-60
2023/01/28 10:33:16;;;;;;;15.18;10.52;;;;;;;;;;5113241;28;20187;-60
2023/01/28 10:35:46;;;;;;;11.10;9.27;;;;;;;;;;5113305;28;20565;-60
2023/01/28 10:38:14;;;;;;;10.23;8.50;;;;;;;;;;5113150;28;20195;-60
2023/01/28 10:40:42;;;;;;;11.38;8.85;;;;;;;;;;5114988;28;20218;-59
2023/01/28 10:43:09;;;;;;;13.00;9.68;;;;;;;;;;5117549;28;20665;-60
2023/01/28 10:45:38;;;;;;;12.95;9.65;;;;;;;;;;5117185;28;20223;-60
2023/01/28 10:48:08;;;;;;;11.48;9.27;;;;;;;;;;5117472;28;20638;-60
2023/01/28 10:50:35;;;;;;;13.57;9.90;;;;;;;;;;5117274;28;20191;-60
2023/01/28 10:53:05;;;;;;;17.15;9.60;;;;;;;;;;5117253;28;20744;-60
2023/01/28 10:55:35;;;;;;;11.85;8.93;;;;;;;;;;5117187;28;20606;-60
2023/01/28 10:58:04;;;;;;;14.20;8.75;;;;;;;;;;5117326;28;20324;-60
2023/01/28 11:00:33;;;;;;;12.40;8.93;;;;;;;;;;5117173;28;20305;-60
2023/01/28 11:03:00;;;;;;;10.55;7.05;;;;;;;;;;5117064;28;20196;-60
2023/01/28 11:05:29;;;;;;;7.88;7.07;;;;;;;;;;5116960;28;20190;-60
2023/01/28 11:08:05;;;;;;;8.80;6.13;;;;;;;;;;5116957;28;20193;-60
2023/01/28 11:10:33;;;;;;;7.35;5.00;;;;;;;;;;5117068;28;20237;-60
2023/01/28 11:13:01;;;;;;;8.35;6.32;;;;;;;;;;5116982;28;20239;-60
2023/01/28 11:15:28;;;;;;;6.90;5.53;;;;;;;;;;5117029;28;20221;-60
2023/01/28 11:17:57;;;;;;;5.72;5.25;;;;;;;;;;5116739;28;20477;-60
2023/01/28 11:20:25;;;;;;;6.68;5.00;;;;;;;;;;5116500;28;20220;-60
2023/01/28 11:22:53;;;;;;;6.85;6.00;;;;;;;;;;5116801;28;20336;-60
2023/01/28 11:25:25;;;;;;;5.18;4.45;;;;;;;;;;5116993;28;20197;-61
2023/01/28 11:27:53;;;;;;;5.28;4.22;;;;;;;;;;5116580;28;20205;-60
2023/01/28 11:30:22;;;;;;;5.07;4.03;;;;;;;;;;5116552;28;20560;-60
2023/01/28 11:32:55;;;;;;;3.42;3.10;;;;;;;;;;5116166;28;20200;-60
2023/01/28 11:35:27;;;;;;;8.80;2.47;;;;;;;;;;5116731;28;20185;-60
2023/01/28 11:37:54;;;;;;;6.05;2.60;;;;;;;;;;5116169;28;20195;-61
2023/01/28 11:40:23;;;;;;;2.90;2.35;;;;;;;;;;5116461;28;20227;-60
2023/01/28 11:42:51;;;;;;;6.55;3.05;;;;;;;;;;5116257;28;20216;-60
2023/01/28 11:45:18;;;;;;;1.85;1.75;;;;;;;;;;5116005;28;20214;-60
2023/01/28 11:47:52;;;;;;;3.08;1.60;;;;;;;;;;5116359;28;20201;-60
2023/01/28 11:50:25;;;;;;;1.20;1.10;;;;;;;;;;5116450;28;20199;-60
2023/01/28 11:52:57;;;;;;;4.30;1.45;;;;;;;;;;5115970;28;20186;-60
2023/01/28 11:55:40;;;;;;;5.05;1.50;;;;;;;;;;5116051;28;20194;-61
2023/01/28 11:58:13;;;;;;;3.65;1.50;;;;;;;;;;5116188;28;20203;-61
2023/01/28 12:00:45;;;;;;;2.08;1.10;;;;;;;;;;5116036;28;20222;-60
2023/01/28 12:03:27;;;;;;;1.88;1.00;;;;;;;;;;5116149;28;20197;-60
2023/01/28 12:05:55;;;;;;;2.30;1.00;;;;;;;;;;5115607;28;20192;-61
2023/01/28 12:08:24;;;;;;;5.53;1.40;;;;;;;;;;5115261;28;20195;-60
2023/01/28 12:11:08;;;;;;;3.25;1.27;;;;;;;;;;5115596;28;20553;-61
2023/01/28 12:13:43;;;;;;;5.15;1.30;;;;;;;;;;5115410;28;20196;-60
2023/01/28 12:16:14;;;;;;;1.25;1.15;;;;;;;;;;5115298;28;20284;-60
2023/01/28 12:18:47;;;;;;;2.53;1.30;;;;;;;;;;5115124;28;20193;-60
2023/01/28 12:21:17;;;;;;;1.83;1.73;;;;;;;;;;5115207;28;20228;-60
2023/01/28 12:23:50;;;;;;;6.10;1.35;;;;;;;;;;5115033;28;20724;-60
2023/01/28 12:26:23;;;;;;;2.88;0.82;;;;;;;;;;5115017;28;20197;-61
2023/01/28 12:28:54;;;;;;;2.88;1.10;;;;;;;;;;5114980;28;20673;-61
2023/01/28 12:31:29;;;;;;;2.58;1.30;;;;;;;;;;5114993;28;20231;-60
2023/01/28 12:34:05;;;;;;;1.15;0.73;;;;;;;;;;5115372;28;20690;-60
2023/01/28 12:36:41;;;;;;;2.97;0.80;;;;;;;;;;5115169;28;20197;-60
2023/01/28 12:39:14;;;;;;;1.30;1.20;;;;;;;;;;5114886;28;20279;-60
2023/01/28 12:41:44;;;;;;;1.35;1.02;;;;;;;;;;5114647;28;20305;-60
2023/01/28 12:44:14;;;;;;;2.80;2.03;;;;;;;;;;5114884;28;20197;-60
2023/01/28 12:46:44;;;;;;;2.20;1.70;;;;;;;;;;5074284;28;20192;-60
2023/01/28 12:49:14;;;;;;;2.15;1.30;;;;;;;;;;5074370;28;20223;-60
2023/01/28 12:51:50;;;;;;;7.70;1.10;;;;;;;;;;5073946;28;20550;-60
2023/01/28 12:54:18;;;;;;;2.60;0.80;;;;;;;;;;5074253;28;20281;-60
2023/01/28 12:56:50;;;;;;;3.60;1.20;;;;;;;;;;5073948;28;20196;-60
2023/01/28 12:59:19;;;;;;;0.70;0.65;;;;;;;;;;5073919;28;20246;-60
2023/01/28 13:01:50;;;;;;;19.92;9.35;;;;;;;;;;5073660;28;20315;-61
2023/01/28 13:04:19;;;;;;;4.35;2.08;;;;;;;;;;5073104;28;20286;-60
2023/01/28 13:06:48;;;;;;;2.08;0.80;;;;;;;;;;5073619;28;20218;-60
2023/01/28 13:09:17;;;;;;;7.60;4.20;;;;;;;;;;5073549;28;20743;-60
2023/01/28 13:11:45;;;;;;;9.07;6.30;;;;;;;;;;5073532;28;20198;-60
2023/01/28 13:14:14;;;;;;;2.22;1.92;;;;;;;;;;5073876;28;20201;-60
2023/01/28 13:16:41;;;;;;;2.63;0.77;;;;;;;;;;5073499;28;20281;-60
2023/01/28 13:19:09;;;;;;;1.08;0.70;;;;;;;;;;5073282;28;20201;-60
2023/01/28 13:21:37;;;;;;;2.00;1.00;;;;;;;;;;5073349;28;20645;-61
2023/01/28 13:24:06;;;;;;;2.38;1.10;;;;;;;;;;5073167;28;20219;-61
2023/01/28 13:26:42;;;;;;;2.65;1.25;;;;;;;;;;5073411;28;20578;-60
2023/01/28 13:29:17;;;;;;;2.72;2.53;;;;;;;;;;5073085;28;20194;-60
2023/01/28 13:31:47;;;;;;;4.05;3.75;;;;;;;;;;5073076;28;20282;-60
2023/01/28 13:34:28;;;;;;;6.28;5.88;;;;;;;;;;5073204;28;20195;-60
2023/01/28 13:36:55;;;;;;;3.55;3.05;;;;;;;;;;5073072;28;20620;-61
2023/01/28 13:39:23;;;;;;;7.40;6.70;;;;;;;;;;5073064;28;20191;-60
2023/01/28 13:41:51;;;;;;;18.33;11.75;;;;;;;;;;5072775;28;20659;-60
2023/01/28 13:44:18;;;;;;;17.60;12.40;;;;;;;;;;5074371;28;20290;-61
2023/01/28 13:46:47;;;;;;;10.43;6.75;;;;;;;;;;5113535;28;20206;-61
2023/01/28 13:49:16;;;;;;;3.00;2.80;;;;;;;;;;5113523;28;20192;-60
2023/01/28 13:51:51;;;;;;;4.47;2.40;;;;;;;;;;5113444;28;20521;-61
2023/01/28 13:54:22;;;;;;;13.32;10.90;;;;;;;;;;5113201;28;20592;-60
2023/01/28 13:56:56;;;;;;;10.45;4.40;;;;;;;;;;5113458;28;20198;-60
2023/01/28 13:59:38;;;;;;;7.03;4.97;;;;;;;;;;5113297;28;20303;-60
2023/01/28 14:02:21;;;;;;;4.22;3.83;;;;;;;;;;5113163;28;20555;-60
2023/01/28 14:04:57;;;;;;;10.77;6.30;;;;;;;;;;5113041;28;20194;-60
2023/01/28 14:07:54;;;;;;;8.27;5.65;;;;;;;;;;5113335;28;20549;-60
2023/01/28 14:10:44;;;;;;;4.10;3.70;;;;;;;;;;5030332;28;20276;-60
2023/01/28 14:13:19;;;;;;;3.83;2.85;;;;;;;;;;5106893;28;20720;-60
2023/01/28 14:15:57;;;;;;;3.38;3.08;;;;;;;;;;5113198;28;20209;-60
2023/01/28 14:18:28;;;;;;;4.05;3.38;;;;;;;;;;5113123;28;20246;-60
2023/01/28 14:20:56;;;;;;;4.13;3.83;;;;;;;;;;5113508;28;20671;-60
2023/01/28 14:23:25;;;;;;;4.57;3.50;;;;;;;;;;5112922;28;20190;-60
2023/01/28 14:26:07;;;;;;;5.13;2.95;;;;;;;;;;5113407;28;20190;-61
2023/01/28 14:28:42;;;;;;;5.75;4.40;;;;;;;;;;5110301;28;20212;-60
2023/01/28 14:31:12;;;;;;;11.13;7.75;;;;;;;;;;5112944;28;20631;-61
2023/01/28 14:33:41;;;;;;;17.05;9.80;;;;;;;;;;5112850;28;20269;-60
2023/01/28 14:36:10;;;;;;;7.78;4.38;;;;;;;;;;5112804;28;20225;-60
2023/01/28 14:38:39;;;;;;;6.07;5.53;;;;;;;;;;5112945;28;20193;-60
2023/01/28 14:41:06;;;;;;;4.60;4.15;;;;;;;;;;5112947;28;20218;-60
2023/01/28 14:43:33;;;;;;;3.60;3.30;;;;;;;;;;5112891;28;20187;-60
2023/01/28 14:46:14;;;;;;;2.85;2.50;;;;;;;;;;5112779;28;20226;-60
2023/01/28 14:48:46;;;;;;;2.63;2.42;;;;;;;;;;5112873;28;20194;-60
2023/01/28 14:51:38;;;;;;;3.58;3.28;;;;;;;;;;5112885;28;20348;-61
2023/01/28 14:54:14;;;;;;;4.15;3.03;;;;;;;;;;5112797;28;20281;-60
2023/01/28 14:56:51;;;;;;;2.67;2.22;;;;;;;;;;5112753;28;20247;-60
2023/01/28 14:59:20;;;;;;;3.25;2.40;;;;;;;;;;5112948;28;20215;-61
2023/01/28 15:01:48;;;;;;;5.13;3.60;;;;;;;;;;5112648;28;20222;-61
2023/01/28 15:04:27;;;;;;;3.03;2.83;;;;;;;;;;5112643;28;20193;-61
2023/01/28 15:06:54;;;;;;;3.60;3.30;;;;;;;;;;5112651;28;20194;-61
2023/01/28 15:09:22;;;;;;;2.85;2.55;;;;;;;;;;5112537;28;20539;-60
2023/01/28 15:11:50;;;;;;;5.40;4.93;;;;;;;;;;5112676;28;20281;-60
2023/01/28 15:14:21;;;;;;;3.97;3.15;;;;;;;;;;5112626;28;20285;-61
2023/01/28 15:16:49;;;;;;;7.75;5.13;;;;;;;;;;5112476;28;20285;-60
2023/01/28 15:19:16;;;;;;;7.82;5.38;;;;;;;;;;5112450;28;20187;-61
2023/01/28 15:21:45;;;;;;;6.95;4.50;;;;;;;;;;5112306;28;20214;-61
2023/01/28 15:24:14;;;;;;;16.27;11.00;;;;;;;;;;5112311;28;20214;-61
2023/01/28 15:26:45;;;;;;;33.92;11.45;;;;;;;;;;5114302;28;20294;-60